Time;durP1;ratioP1;P1;durP2;ratioP2;P2;SDS_P1;SDS_P2;PMS_P1;PMS_P2;Temp;Humidity;BMP_temperature;BMP_pressure;BME280_temperature;BME280_humidity;BME280_pressure;Samples;Min_cycle;Max_cycle;Signal;HPM_P1;HPM_P2
2022/10/28 00:03:02;;;;;;;20.23;8.73;;;;;;;12.99;100.00;101478.19;10455410;28;20053;-65
2022/10/28 00:08:04;;;;;;;28.85;10.07;;;;;;;12.90;100.00;101483.81;10452916;28;20041;-67
2022/10/28 00:13:06;;;;;;;23.45;10.18;;;;;;;12.78;100.00;101478.16;10454935;28;20053;-65
2022/10/28 00:18:10;;;;;;;19.70;9.57;;;;;;;12.65;100.00;101482.19;10454925;28;20059;-67
2022/10/28 00:23:11;;;;;;;21.33;9.10;;;;;;;12.55;100.00;101477.34;10453449;28;20053;-66
2022/10/28 00:28:13;;;;;;;17.70;9.15;;;;;;;12.49;100.00;101472.38;10454118;28;20076;-66
2022/10/28 00:33:16;;;;;;;19.83;9.15;;;;;;;12.34;100.00;101472.06;10454403;28;20073;-66
2022/10/28 00:38:17;;;;;;;24.38;9.15;;;;;;;12.25;100.00;101475.03;10452031;28;20489;-66
2022/10/28 00:43:34;;;;;;;23.55;9.68;;;;;;;12.29;100.00;101471.41;10454023;28;20137;-68
2022/10/28 00:48:40;;;;;;;23.77;10.38;;;;;;;12.11;100.00;101467.72;10453735;28;20328;-65
2022/10/28 00:53:47;;;;;;;23.02;9.77;;;;;;;12.17;100.00;101464.03;10453546;28;20041;-65
2022/10/28 00:58:51;;;;;;;30.52;10.60;;;;;;;12.05;100.00;101449.63;10453371;28;20109;-67
2022/10/28 01:03:56;;;;;;;23.63;11.60;;;;;;;11.93;100.00;101438.75;10453824;28;20059;-65
2022/10/28 01:08:58;;;;;;;22.38;11.25;;;;;;;12.01;100.00;101427.97;10451260;28;20204;-65
2022/10/28 01:14:22;;;;;;;28.83;11.07;;;;;;;11.93;100.00;101424.78;10452853;28;20435;-65
2022/10/28 01:20:27;;;;;;;26.95;11.35;;;;;;;11.99;100.00;101440.25;10453461;28;20064;-65
2022/10/28 01:26:23;;;;;;;20.27;10.77;;;;;;;11.81;100.00;101426.13;10439086;28;20080;-65
2022/10/28 01:31:41;;;;;;;23.92;10.38;;;;;;;11.69;100.00;101433.53;10453228;28;20091;-65
2022/10/28 01:36:56;;;;;;;25.50;10.38;;;;;;;11.67;100.00;101418.81;10455339;28;20073;-65
2022/10/28 01:42:11;;;;;;;25.67;11.02;;;;;;;11.55;100.00;101422.72;10460496;28;20045;-65
2022/10/28 01:47:22;;;;;;;25.83;10.60;;;;;;;11.59;100.00;101411.25;10460504;28;20479;-66
2022/10/28 01:52:30;;;;;;;21.33;11.68;;;;;;;11.44;100.00;101415.31;10460587;28;20049;-67
2022/10/28 01:57:35;;;;;;;25.23;11.40;;;;;;;11.49;100.00;101410.75;10460174;28;20115;-65
2022/10/28 02:02:41;;;;;;;27.98;11.38;;;;;;;11.42;100.00;101414.50;10459863;28;20521;-67
2022/10/28 02:07:44;;;;;;;24.48;11.52;;;;;;;11.43;100.00;101416.22;10457918;28;20041;-68
2022/10/28 02:12:53;;;;;;;29.55;11.32;;;;;;;11.39;100.00;101409.41;10459571;28;20049;-66
2022/10/28 02:18:13;;;;;;;19.02;9.77;;;;;;;11.35;100.00;101405.19;10459301;28;20492;-67
2022/10/28 02:23:26;;;;;;;18.00;9.38;;;;;;;11.43;100.00;101416.22;10459292;28;20049;-65
2022/10/28 02:28:41;;;;;;;23.40;9.60;;;;;;;11.63;100.00;101412.00;10459011;28;20098;-66
2022/10/28 02:33:50;;;;;;;22.23;9.65;;;;;;;11.59;100.00;101401.66;10458699;28;20049;-68
2022/10/28 02:38:56;;;;;;;19.40;8.95;;;;;;;11.75;100.00;101400.22;10456995;28;20068;-68
2022/10/28 02:44:06;;;;;;;19.40;9.10;;;;;;;11.78;100.00;101402.72;10500141;28;20113;-65
2022/10/28 02:49:13;;;;;;;15.05;6.28;;;;;;;13.09;100.00;101392.16;10499104;28;20135;-65
2022/10/28 02:54:21;;;;;;;20.70;6.63;;;;;;;13.07;100.00;101392.22;10499554;28;20495;-65
2022/10/28 02:59:25;;;;;;;18.58;7.20;;;;;;;13.17;100.00;101394.47;10499630;28;20492;-64
2022/10/28 03:04:28;;;;;;;15.43;5.95;;;;;;;13.02;100.00;101383.72;10499125;28;20067;-65
2022/10/28 03:09:30;;;;;;;11.00;5.30;;;;;;;12.82;100.00;101393.31;10496739;28;20117;-67
2022/10/28 03:14:33;;;;;;;16.10;5.78;;;;;;;13.42;100.00;101390.72;10498829;28;20132;-65
2022/10/28 03:19:36;;;;;;;15.52;4.90;;;;;;;13.78;100.00;101387.34;10498587;28;20053;-65
2022/10/28 03:24:37;;;;;;;15.02;5.43;;;;;;;13.88;100.00;101388.59;10498390;28;20056;-66
2022/10/28 03:29:39;;;;;;;11.48;5.22;;;;;;;14.23;100.00;101392.22;10497889;28;20484;-65
2022/10/28 03:34:42;;;;;;;11.73;5.13;;;;;;;14.25;100.00;101385.09;10497878;28;20056;-66
2022/10/28 03:39:44;;;;;;;15.70;5.07;;;;;;;14.18;100.00;101388.97;10495237;28;20057;-64
2022/10/28 03:44:45;;;;;;;13.20;5.00;;;;;;;14.20;100.00;101381.88;10497332;28;20416;-65
2022/10/28 03:49:48;;;;;;;12.43;5.30;;;;;;;14.24;100.00;101378.16;10496977;28;20393;-66
2022/10/28 03:54:50;;;;;;;16.45;5.30;;;;;;;14.38;100.00;101377.47;10496739;28;20554;-66
2022/10/28 03:59:52;;;;;;;10.35;5.03;;;;;;;14.27;100.00;101388.53;10496506;28;20492;-64
2022/10/28 04:04:55;;;;;;;15.13;5.07;;;;;;;14.37;100.00;101379.25;10496602;28;20048;-65
2022/10/28 04:09:57;;;;;;;11.35;5.05;;;;;;;14.33;100.00;101382.94;10493934;28;20049;-65
2022/10/28 04:14:58;;;;;;;14.13;5.30;;;;;;;14.42;100.00;101382.50;10495970;28;20109;-65
2022/10/28 04:20:03;;;;;;;10.95;4.80;;;;;;;14.44;100.00;101389.44;10495822;28;20459;-67
2022/10/28 04:25:05;;;;;;;18.52;5.60;;;;;;;14.50;100.00;101389.13;10495523;28;20049;-65
2022/10/28 04:30:11;;;;;;;12.48;5.00;;;;;;;14.36;100.00;101389.81;10496062;28;20117;-65
2022/10/28 04:35:14;;;;;;;14.30;4.85;;;;;;;14.50;100.00;101390.00;10495227;28;20488;-65
2022/10/28 04:40:16;;;;;;;18.25;5.35;;;;;;;14.38;100.00;101391.47;10493276;28;20078;-65
2022/10/28 04:45:18;;;;;;;15.02;5.20;;;;;;;14.28;100.00;101392.84;10495303;28;20554;-65
2022/10/28 04:50:21;;;;;;;14.25;5.65;;;;;;;14.09;100.00;101385.88;10494834;28;20385;-67
2022/10/28 04:55:23;;;;;;;12.57;5.88;;;;;;;14.12;100.00;101380.47;10495182;28;20048;-66
2022/10/28 05:00:26;;;;;;;12.15;5.57;;;;;;;14.02;100.00;101379.22;10494997;28;20055;-65
2022/10/28 05:05:29;;;;;;;11.23;5.57;;;;;;;13.94;100.00;101376.09;10495154;28;20470;-65
2022/10/28 05:10:32;;;;;;;13.45;5.03;;;;;;;13.92;100.00;101375.34;10492364;28;20048;-64
2022/10/28 05:15:34;;;;;;;15.35;5.47;;;;;;;13.95;100.00;101376.03;10494827;28;20056;-64
2022/10/28 05:20:37;;;;;;;11.57;5.45;;;;;;;14.09;100.00;101380.63;10495380;28;20053;-66
2022/10/28 05:25:39;;;;;;;15.38;5.43;;;;;;;14.02;100.00;101379.22;10494417;28;20067;-66
2022/10/28 05:30:41;;;;;;;17.42;5.30;;;;;;;13.99;100.00;101374.13;10494220;28;20071;-66
2022/10/28 05:35:44;;;;;;;20.08;5.80;;;;;;;13.90;100.00;101365.75;10494796;28;20221;-67
2022/10/28 05:40:46;;;;;;;12.25;5.13;;;;;;;13.81;100.00;101363.59;10491833;28;20044;-66
2022/10/28 05:45:52;;;;;;;17.88;5.28;;;;;;;13.69;100.00;101372.03;10494713;28;20048;-66
2022/10/28 05:50:56;;;;;;;11.35;5.82;;;;;;;13.75;100.00;101376.97;10493955;28;20078;-66
2022/10/28 05:55:58;;;;;;;14.68;5.60;;;;;;;13.73;100.00;101373.59;10492489;28;20085;-65
2022/10/28 06:01:02;;;;;;;13.73;5.72;;;;;;;13.89;100.00;101376.34;10493056;28;20072;-67
2022/10/28 06:06:05;;;;;;;15.57;5.30;;;;;;;13.91;100.00;101371.84;10492278;28;20051;-65
2022/10/28 06:11:07;;;;;;;15.25;5.65;;;;;;;13.99;100.00;101374.13;10489967;28;20040;-65
2022/10/28 06:16:08;;;;;;;14.50;5.70;;;;;;;14.09;100.00;101375.38;10492159;28;20090;-66
2022/10/28 06:21:12;;;;;;;12.18;5.35;;;;;;;14.24;100.00;101378.16;10492829;28;20052;-64
2022/10/28 06:26:14;;;;;;;10.70;5.20;;;;;;;14.31;100.00;101382.19;10499242;28;20044;-65
2022/10/28 06:31:16;;;;;;;15.10;6.00;;;;;;;14.24;100.00;101388.66;10499584;28;20049;-66
2022/10/28 06:36:19;;;;;;;22.33;6.68;;;;;;;14.18;100.00;101391.59;10499697;28;20052;-65
2022/10/28 06:41:21;;;;;;;15.40;5.80;;;;;;;13.99;100.00;101374.97;10496636;28;20053;-66
2022/10/28 06:46:22;;;;;;;15.02;6.10;;;;;;;13.90;100.00;101378.03;10499086;28;20090;-65
2022/10/28 06:51:27;;;;;;;10.25;5.72;;;;;;;14.01;100.00;101377.50;10498321;28;20072;-65
2022/10/28 06:56:28;;;;;;;13.65;6.97;;;;;;;14.35;100.00;101373.22;10499332;28;20438;-66
2022/10/28 07:01:30;;;;;;;11.15;5.50;;;;;;;14.47;100.00;101381.44;10500067;28;20094;-66
2022/10/28 07:06:33;;;;;;;14.23;6.15;;;;;;;14.67;100.00;101383.88;10497213;28;20149;-67
2022/10/28 07:11:35;;;;;;;15.82;6.38;;;;;;;15.00;100.00;101382.25;10499458;28;20078;-66
2022/10/28 07:16:37;;;;;;;12.98;5.97;;;;;;;15.35;100.00;101376.03;10498737;28;20122;-66
2022/10/28 07:21:40;;;;;;;14.73;5.72;;;;;;;15.49;100.00;101382.28;10498529;28;20413;-64
2022/10/28 07:26:41;;;;;;;16.08;5.35;;;;;;;15.70;100.00;101396.91;10498282;28;20045;-65
2022/10/28 07:31:43;;;;;;;15.15;5.50;;;;;;;15.80;100.00;101399.88;10497778;28;20048;-65
2022/10/28 07:36:49;;;;;;;13.68;5.70;;;;;;;15.92;100.00;101408.88;10495781;28;20053;-67
2022/10/28 07:41:52;;;;;;;23.48;6.13;;;;;;;16.03;100.00;101402.19;10498235;28;20049;-67
2022/10/28 07:46:54;;;;;;;14.00;5.43;;;;;;;16.34;100.00;101400.41;10497445;28;20044;-65
2022/10/28 07:51:57;;;;;;;;;;;;;;;16.66;100.00;101388.94;10497938;28;20049;-65
2022/10/28 07:56:58;;;;;;;14.73;5.75;;;;;;;17.30;100.00;101378.03;10497099;28;19959;-67
2022/10/28 08:02:00;;;;;;;;;;;;;;;17.93;99.11;101380.22;10497722;28;20045;-65
2022/10/28 08:07:03;;;;;;;14.48;5.25;;;;;;;18.96;97.48;101389.31;10494053;28;20136;-65
2022/10/28 08:12:07;;;;;;;11.68;5.07;;;;;;;19.74;97.62;101386.47;10496617;28;20041;-65
2022/10/28 08:17:09;;;;;;;13.52;5.05;;;;;;;18.90;90.87;101400.28;10496030;28;20056;-66
2022/10/28 08:22:12;;;;;;;13.18;4.60;;;;;;;19.43;95.77;101410.72;10496337;28;20093;-67
2022/10/28 08:27:14;;;;;;;11.63;4.95;;;;;;;19.12;96.50;101409.41;10496472;28;20052;-67
2022/10/28 08:32:15;;;;;;;12.05;5.15;;;;;;;18.39;99.37;101409.88;10495894;28;20075;-65
2022/10/28 08:37:18;;;;;;;11.70;5.18;;;;;;;18.13;96.88;101407.16;10493275;28;20132;-67
2022/10/28 08:42:37;;;;;;;15.15;4.95;;;;;;;18.05;97.10;101409.41;10496078;28;20060;-66
2022/10/28 08:47:51;;;;;;;13.85;4.97;;;;;;;18.30;96.31;101397.28;10494815;28;20500;-67
2022/10/28 08:53:00;;;;;;;16.50;4.82;;;;;;;19.05;94.93;101395.72;10495293;28;20446;-67
2022/10/28 08:58:11;;;;;;;11.82;4.47;;;;;;;19.73;94.79;101402.47;10495244;28;20071;-65
2022/10/28 09:03:21;;;;;;;15.13;4.45;;;;;;;20.12;92.64;101407.66;10495874;28;20052;-66
2022/10/28 09:08:27;;;;;;;14.85;5.07;;;;;;;19.60;89.32;101418.44;10492904;28;20055;-66
2022/10/28 09:13:47;;;;;;;12.77;5.10;;;;;;;19.79;88.97;101413.50;10494476;28;20160;-66
2022/10/28 09:18:53;;;;;;;12.60;4.63;;;;;;;20.17;92.81;101426.69;10494730;28;20044;-66
2022/10/28 09:27:22;;;;;;;;;;;;;;;20.26;85.95;101435.78;10616481;27;20322;-67
2022/10/28 09:32:37;;;;;;;18.92;5.18;;;;;;;20.26;86.33;101430.47;10573143;28;19927;-68
2022/10/28 09:37:47;;;;;;;13.98;4.78;;;;;;;20.38;90.14;101429.53;10578849;28;20456;-66
2022/10/28 09:43:04;;;;;;;13.52;4.80;;;;;;;20.13;86.92;101435.81;10591153;27;20066;-67
2022/10/28 09:48:18;;;;;;;14.82;4.63;;;;;;;20.25;84.79;101429.63;10571721;28;20048;-67
2022/10/28 09:53:38;;;;;;;12.00;4.53;;;;;;;20.30;84.98;101432.78;10572206;28;20089;-66
2022/10/28 09:58:47;;;;;;;19.00;4.50;;;;;;;20.99;82.18;101432.94;10571426;28;20040;-65
2022/10/28 10:03:51;;;;;;;18.80;4.13;;;;;;;21.77;78.15;101440.16;10571628;28;20518;-66
2022/10/28 10:08:55;;;;;;;18.30;4.82;;;;;;;21.16;78.11;101439.59;10568879;28;20040;-65
2022/10/28 10:14:06;;;;;;;13.05;4.45;;;;;;;21.09;79.22;101439.25;10571015;28;20149;-66
2022/10/28 10:19:11;;;;;;;13.82;4.93;;;;;;;21.58;79.11;101430.13;10571377;28;20047;-66
2022/10/28 10:24:25;;;;;;;10.85;4.38;;;;;;;21.65;79.49;101438.47;10570390;28;20568;-65
2022/10/28 10:29:31;;;;;;;18.55;4.93;;;;;;;22.20;75.89;101433.13;10570634;28;20107;-65
2022/10/28 10:34:33;;;;;;;15.02;4.40;;;;;;;21.99;73.51;101414.47;10564681;28;20079;-68
2022/10/28 10:39:38;;;;;;;16.45;4.50;;;;;;;22.87;73.33;101430.25;10572449;28;20094;-65
2022/10/28 10:44:43;;;;;;;16.13;4.75;;;;;;;22.31;73.16;101423.44;10584348;28;20533;-66
2022/10/28 10:49:45;;;;;;;14.40;4.50;;;;;;;22.30;71.36;101401.31;10583736;28;20432;-66
2022/10/28 10:55:01;;;;;;;20.02;4.35;;;;;;;23.09;69.56;101407.09;10584348;28;20089;-65
2022/10/28 11:00:15;;;;;;;14.68;4.03;;;;;;;22.60;72.04;101407.69;10585064;28;20464;-68
2022/10/28 11:05:22;;;;;;;12.05;4.15;;;;;;;22.11;70.18;101404.66;10585593;27;20050;-66
2022/10/28 11:10:27;;;;;;;13.88;4.40;;;;;;;22.53;69.47;101417.13;10581065;28;20096;-68
2022/10/28 11:15:32;;;;;;;15.02;4.32;;;;;;;22.70;70.46;101406.91;10583355;28;20055;-68
2022/10/28 11:20:53;;;;;;;19.27;5.30;;;;;;;22.07;69.86;101395.25;10583036;28;20052;-66
2022/10/28 11:25:59;;;;;;;;;;;;;;;21.88;70.47;101386.16;10583026;28;20569;-65
2022/10/28 11:31:31;;;;;;;13.15;4.03;;;;;;;22.00;70.54;101395.75;10582765;28;19920;-64
2022/10/28 11:36:45;;;;;;;16.05;4.22;;;;;;;22.19;70.18;101404.00;10581533;28;20104;-66
2022/10/28 11:42:12;;;;;;;18.13;4.20;;;;;;;22.31;70.64;101410.94;10582341;28;20101;-65
2022/10/28 11:47:40;;;;;;;17.23;4.53;;;;;;;22.23;69.76;101405.44;10581524;28;20044;-66
2022/10/28 11:53:04;;;;;;;16.35;4.03;;;;;;;22.23;69.92;101397.47;10582043;28;20054;-65
2022/10/28 11:58:36;;;;;;;17.10;4.57;;;;;;;22.52;69.20;101402.16;10581625;28;20560;-65
2022/10/28 12:04:18;;;;;;;13.90;4.60;;;;;;;22.25;69.55;101419.47;10579498;28;20043;-66
2022/10/28 12:09:33;;;;;;;15.98;3.80;;;;;;;22.12;70.02;101417.84;10536556;28;20048;-65
2022/10/28 12:14:47;;;;;;;15.38;4.28;;;;;;;22.24;70.19;101417.78;10540384;28;20105;-64
2022/10/28 12:19:58;;;;;;;14.65;4.50;;;;;;;22.06;70.41;101418.31;10540443;28;20071;-64
2022/10/28 12:25:14;;;;;;;19.63;4.68;;;;;;;22.27;71.36;101417.50;10539902;28;20113;-65
2022/10/28 12:30:24;;;;;;;14.38;4.20;;;;;;;22.45;70.93;101424.91;10540225;28;20055;-66
2022/10/28 12:35:32;;;;;;;14.63;4.37;;;;;;;22.36;71.21;101430.03;10544254;28;20108;-66
2022/10/28 12:40:45;;;;;;;17.45;5.18;;;;;;;22.73;72.47;101422.59;10538839;28;20105;-67
2022/10/28 12:45:49;;;;;;;19.70;4.97;;;;;;;22.43;71.09;101433.03;10539091;28;20075;-67
2022/10/28 12:51:05;;;;;;;12.57;4.50;;;;;;;22.00;72.68;101432.13;10538594;28;20542;-64
2022/10/28 12:56:14;;;;;;;15.15;4.22;;;;;;;21.81;72.92;101436.28;10513489;28;20048;-64
2022/10/28 13:01:21;;;;;;;13.25;4.45;;;;;;;21.79;74.96;101446.19;10538267;28;20060;-66
2022/10/28 13:06:53;;;;;;;20.30;4.60;;;;;;;21.61;73.64;101454.66;10537127;28;20431;-66
2022/10/28 13:12:49;;;;;;;12.57;4.68;;;;;;;21.52;74.71;101460.69;10538340;28;20520;-67
2022/10/28 13:18:21;;;;;;;16.77;4.47;;;;;;;21.49;75.85;101467.09;10537865;28;20078;-63
2022/10/28 13:23:39;;;;;;;11.52;4.22;;;;;;;21.40;75.18;101464.31;10537457;28;20147;-66
2022/10/28 13:28:47;;;;;;;15.45;4.30;;;;;;;21.35;75.94;101476.13;10537849;28;20365;-65
2022/10/28 13:33:57;;;;;;;18.85;5.15;;;;;;;21.28;77.16;101474.94;10537175;28;20101;-65
2022/10/28 13:39:06;;;;;;;14.87;4.77;;;;;;;21.21;77.57;101484.34;10536275;28;20048;-80
2022/10/28 13:44:28;;;;;;;18.45;4.85;;;;;;;21.38;76.04;101490.16;10538298;28;20052;-79
2022/10/28 13:49:31;;;;;;;20.25;5.03;;;;;;;21.53;76.44;101499.56;10536506;28;20058;-74
2022/10/28 13:54:57;;;;;;;13.82;4.63;;;;;;;21.36;76.33;101499.06;10538650;28;20052;-75
2022/10/28 14:00:02;;;;;;;20.02;5.03;;;;;;;21.61;77.15;101502.44;10538081;28;20074;-77
2022/10/28 14:05:08;;;;;;;14.68;4.45;;;;;;;21.60;76.24;101514.03;10538093;28;20048;-78
2022/10/28 14:10:23;;;;;;;21.38;4.78;;;;;;;21.50;76.02;101521.03;10537047;28;20056;-78
2022/10/28 14:15:30;;;;;;;15.73;4.07;;;;;;;21.58;76.07;101513.31;10545957;28;20044;-77
2022/10/28 14:20:36;;;;;;;14.38;4.65;;;;;;;21.53;75.79;101517.28;10546160;28;20075;-78
2022/10/28 14:26:04;;;;;;;13.02;4.22;;;;;;;21.38;75.66;101511.38;10545138;28;20458;-77
2022/10/28 14:31:39;;;;;;;17.05;4.22;;;;;;;21.15;77.34;101517.53;10545934;28;20071;-79
2022/10/28 14:36:59;;;;;;;11.88;4.28;;;;;;;21.01;77.20;101507.13;10542421;28;20105;-79
2022/10/28 14:42:32;;;;;;;14.73;4.45;;;;;;;20.87;78.12;101510.78;10545022;28;20047;-76
2022/10/28 14:48:08;;;;;;;17.15;4.57;;;;;;;20.90;79.51;101531.81;10544794;28;20078;-79
2022/10/28 14:53:19;;;;;;;13.02;4.70;;;;;;;20.83;79.61;101534.91;10543385;28;20077;-77
2022/10/28 14:58:31;;;;;;;;;;;;;;;20.73;80.25;101539.19;10569420;28;20437;-81
2022/10/28 15:03:33;;;;;;;12.13;3.92;;;;;;;20.73;80.80;101544.50;10551072;28;19924;-78
2022/10/28 15:08:36;;;;;;;17.02;4.10;;;;;;;20.60;82.07;101544.59;10540504;28;20047;-77
2022/10/28 15:13:39;;;;;;;12.38;4.18;;;;;;;20.47;83.00;101536.69;10543562;28;20040;-76
2022/10/28 15:18:47;;;;;;;11.10;4.13;;;;;;;20.36;83.13;101548.09;10542800;28;20048;-74
2022/10/28 15:24:03;;;;;;;15.18;4.30;;;;;;;20.26;83.40;101553.22;10542431;28;20087;-75
2022/10/28 15:29:06;;;;;;;15.70;4.80;;;;;;;20.10;83.95;101552.63;10542681;28;20051;-78
2022/10/28 15:34:21;;;;;;;12.52;3.88;;;;;;;19.95;84.73;101553.56;10542387;28;20082;-80
2022/10/28 15:39:24;;;;;;;12.57;4.00;;;;;;;19.87;84.96;101558.56;10539242;28;20078;-78
2022/10/28 15:44:36;;;;;;;12.52;4.15;;;;;;;19.72;86.03;101571.09;10540160;28;20046;-76
2022/10/28 15:49:41;;;;;;;14.32;4.22;;;;;;;19.57;87.26;101562.41;10539742;28;20048;-76
2022/10/28 15:54:53;;;;;;;12.70;4.00;;;;;;;19.52;86.82;101576.00;10539868;28;20059;-78
2022/10/28 16:00:27;;;;;;;11.77;3.90;;;;;;;19.45;88.75;101569.41;10545764;28;20561;-78
2022/10/28 16:05:56;;;;;;;12.98;4.18;;;;;;;19.40;88.78;101566.25;10538709;28;20135;-79
2022/10/28 16:11:03;;;;;;;11.95;4.00;;;;;;;19.28;88.89;101579.38;10536554;28;20051;-78
2022/10/28 16:16:13;;;;;;;11.57;4.03;;;;;;;19.03;88.80;101596.84;10539319;28;20426;-78
2022/10/28 16:21:20;;;;;;;14.60;4.22;;;;;;;18.83;92.10;101611.41;10539143;28;20074;-77
2022/10/28 16:26:23;;;;;;;15.05;4.43;;;;;;;18.59;91.68;101608.56;10539836;28;20143;-77
2022/10/28 16:31:30;;;;;;;16.55;4.20;;;;;;;18.38;93.15;101616.91;10539677;28;20055;-76
2022/10/28 16:36:32;;;;;;;13.32;4.63;;;;;;;18.15;92.29;101632.41;10540075;28;20052;-78
2022/10/28 16:41:33;;;;;;;12.48;4.22;;;;;;;17.96;93.44;101635.31;10538075;28;20093;-76
2022/10/28 16:46:37;;;;;;;13.02;4.47;;;;;;;17.83;94.72;101629.94;10540411;28;20127;-76
2022/10/28 16:51:39;;;;;;;15.85;4.00;;;;;;;17.32;99.32;101618.00;10538827;28;20125;-76
2022/10/28 16:56:40;;;;;;;17.27;4.32;;;;;;;17.04;98.71;101624.84;10542025;28;20040;-78
2022/10/28 17:01:44;;;;;;;9.27;4.32;;;;;;;16.73;99.64;101633.53;10536684;28;20098;-76
2022/10/28 17:06:45;;;;;;;12.38;5.47;;;;;;;16.47;100.00;101646.41;10537342;28;20484;-76
2022/10/28 17:11:48;;;;;;;9.30;4.82;;;;;;;16.27;100.00;101657.16;10539675;28;20048;-76
2022/10/28 17:16:51;;;;;;;12.05;4.95;;;;;;;16.12;100.00;101656.19;10539142;28;20048;-76
2022/10/28 17:21:56;;;;;;;19.02;5.80;;;;;;;16.00;100.00;101655.91;10538417;28;20109;-78
2022/10/28 17:27:01;;;;;;;20.67;6.72;;;;;;;16.03;100.00;101655.75;10539184;28;20078;-77
2022/10/28 17:32:07;;;;;;;15.70;6.55;;;;;;;16.03;100.00;101665.41;10538780;28;20047;-76
2022/10/28 17:37:09;;;;;;;12.55;5.85;;;;;;;15.99;100.00;101669.16;10537476;28;20047;-76
2022/10/28 17:42:13;;;;;;;18.00;5.70;;;;;;;15.84;100.00;101679.50;10537887;28;20434;-77
2022/10/28 17:47:17;;;;;;;17.95;6.75;;;;;;;15.64;100.00;101697.16;10544025;28;20078;-77
2022/10/28 17:52:20;;;;;;;19.65;7.13;;;;;;;15.71;100.00;101703.81;10546878;28;20052;-77
2022/10/28 17:57:22;;;;;;;14.20;6.88;;;;;;;15.99;100.00;101714.75;10546038;28;20059;-77
2022/10/28 18:02:38;;;;;;;18.30;6.85;;;;;;;16.25;100.00;101706.44;10583516;28;20477;-77
2022/10/28 18:07:40;;;;;;;20.42;7.05;;;;;;;16.34;100.00;101712.06;10545181;28;20135;-77
2022/10/28 18:12:42;;;;;;;19.30;7.03;;;;;;;16.42;100.00;101716.91;10546008;28;20052;-76
2022/10/28 18:17:49;;;;;;;13.77;6.15;;;;;;;16.41;100.00;101716.97;10544678;28;20056;-78
2022/10/28 18:22:51;;;;;;;14.38;6.95;;;;;;;16.32;100.00;101723.63;10544731;28;20044;-76
2022/10/28 18:27:52;;;;;;;16.98;7.90;;;;;;;16.17;100.00;101726.13;10544326;28;20094;-78
2022/10/28 18:32:57;;;;;;;16.10;7.75;;;;;;;16.01;100.00;101733.94;10543685;28;20048;-76
2022/10/28 18:38:00;;;;;;;21.10;8.15;;;;;;;15.94;100.00;101736.00;10542282;28;20051;-78
2022/10/28 18:43:02;;;;;;;20.58;9.00;;;;;;;15.92;100.00;101739.66;10544136;28;20138;-79
2022/10/28 18:48:06;;;;;;;18.35;8.40;;;;;;;15.84;100.00;101740.03;10543459;28;20134;-77
2022/10/28 18:53:07;;;;;;;21.38;8.82;;;;;;;15.66;100.00;101741.81;10544046;28;20051;-76
2022/10/28 18:58:13;;;;;;;23.88;7.78;;;;;;;15.50;100.00;101747.00;10542947;28;20495;-77
2022/10/28 19:03:21;;;;;;;21.10;6.90;;;;;;;15.25;100.00;101742.91;10541891;28;20130;-77
2022/10/28 19:08:23;;;;;;;29.83;7.25;;;;;;;15.03;100.00;101751.81;10539052;28;20044;-76
2022/10/28 19:13:28;;;;;;;22.45;7.28;;;;;;;14.79;100.00;101752.03;10542246;28;20048;-77
2022/10/28 19:18:34;;;;;;;16.83;8.70;;;;;;;14.61;100.00;101765.03;10542478;28;20052;-77
2022/10/28 19:23:38;;;;;;;19.58;8.32;;;;;;;14.65;100.00;101763.16;10541740;28;20089;-76
2022/10/28 19:28:42;;;;;;;17.58;9.45;;;;;;;14.70;100.00;101757.66;10526884;28;20239;-76
2022/10/28 19:33:46;;;;;;;21.35;9.55;;;;;;;14.72;100.00;101761.09;10528655;28;20095;-76
2022/10/28 19:38:52;;;;;;;19.70;10.85;;;;;;;14.74;100.00;101769.75;10512658;28;20066;-76
2022/10/28 19:43:57;;;;;;;17.98;9.35;;;;;;;14.71;100.00;101775.16;10527607;28;20051;-76
2022/10/28 19:49:04;;;;;;;20.13;9.98;;;;;;;14.67;100.00;101759.53;10541626;28;20157;-76
2022/10/28 19:54:11;;;;;;;24.90;11.82;;;;;;;14.74;100.00;101751.34;10528425;28;20087;-76
2022/10/28 19:59:13;;;;;;;20.77;11.55;;;;;;;14.63;100.00;101773.72;10540781;28;20415;-76
2022/10/28 20:04:17;;;;;;;25.33;10.85;;;;;;;14.53;100.00;101799.53;10514073;28;20052;-76
2022/10/28 20:09:19;;;;;;;26.60;9.57;;;;;;;14.39;100.00;101808.03;10495985;28;20113;-76
2022/10/28 20:14:21;;;;;;;;;;;;;;;14.35;100.00;101814.34;10541516;28;20052;-76
2022/10/28 20:19:25;;;;;;;16.53;10.50;;;;;;;14.21;100.00;101808.81;10540068;28;19924;-77
2022/10/28 20:24:27;;;;;;;23.23;10.25;;;;;;;14.19;100.00;101802.78;10538594;28;20301;-77
2022/10/28 20:29:30;;;;;;;;;;;;;;;14.24;100.00;101811.31;10539316;28;20056;-77
2022/10/28 20:34:33;;;;;;;21.92;8.75;;;;;;;14.08;100.00;101835.56;10538738;28;19973;-77
2022/10/28 20:39:37;;;;;;;19.75;9.88;;;;;;;14.06;100.00;101842.66;10536620;28;20066;-77
2022/10/28 20:44:38;;;;;;;21.60;11.07;;;;;;;14.07;100.00;101844.38;10538033;28;20117;-76
2022/10/28 20:49:41;;;;;;;20.80;10.15;;;;;;;14.24;100.00;101855.94;10538185;28;20048;-76
2022/10/28 20:54:43;;;;;;;23.48;9.85;;;;;;;14.38;100.00;101861.47;10538562;28;20059;-78
2022/10/28 20:59:48;;;;;;;21.27;8.38;;;;;;;14.11;100.00;101861.69;10537592;28;20055;-78
2022/10/28 21:04:51;;;;;;;28.05;9.52;;;;;;;14.06;100.00;101863.66;10538178;28;20048;-77
2022/10/28 21:09:52;;;;;;;18.00;8.27;;;;;;;14.09;100.00;101871.41;10535014;28;20458;-76
2022/10/28 21:14:54;;;;;;;22.02;9.20;;;;;;;14.02;100.00;101862.94;10537141;28;20055;-78
2022/10/28 21:19:57;;;;;;;;;;;;;;;13.97;100.00;101864.03;10538296;28;20048;-78
2022/10/28 21:25:00;;;;;;;17.52;9.00;;;;;;;13.74;100.00;101863.19;10536760;28;19977;-76
2022/10/28 21:30:02;;;;;;;20.90;9.63;;;;;;;13.61;100.00;101865.41;10537335;28;20105;-77
2022/10/28 21:35:07;;;;;;;29.08;8.95;;;;;;;13.54;100.00;101858.72;10537072;28;20052;-76
2022/10/28 21:40:12;;;;;;;17.67;8.90;;;;;;;13.35;100.00;101865.47;10534568;28;20135;-77
2022/10/28 21:45:14;;;;;;;19.08;9.80;;;;;;;13.23;100.00;101863.31;10536455;28;20040;-76
2022/10/28 21:50:17;;;;;;;24.13;11.18;;;;;;;13.09;100.00;101848.09;10536613;28;20393;-77
2022/10/28 21:55:19;;;;;;;18.77;10.52;;;;;;;12.98;100.00;101859.88;10536872;28;20054;-77
2022/10/28 22:00:22;;;;;;;23.67;11.50;;;;;;;12.96;100.00;101855.56;10536312;28;20059;-77
2022/10/28 22:05:25;;;;;;;23.80;10.82;;;;;;;13.00;100.00;101857.16;10536683;28;20473;-77
2022/10/28 22:10:27;;;;;;;28.40;12.98;;;;;;;12.94;100.00;101863.50;10533874;28;20101;-76
2022/10/28 22:15:29;;;;;;;;;;;;;;;12.92;100.00;101853.97;10536409;28;20427;-76
2022/10/28 22:20:33;;;;;;;37.97;14.90;;;;;;;12.81;100.00;101860.47;10535949;28;19935;-78
2022/10/28 22:25:35;;;;;;;26.23;13.45;;;;;;;12.77;100.00;101864.09;10535588;28;20101;-76
2022/10/28 22:30:36;;;;;;;33.85;13.40;;;;;;;12.78;100.00;101873.66;10536837;28;20044;-77
2022/10/28 22:35:39;;;;;;;27.80;14.50;;;;;;;12.87;100.00;101875.09;10542950;28;20469;-77
2022/10/28 22:40:41;;;;;;;26.75;13.55;;;;;;;12.95;100.00;101870.44;10540662;28;20561;-76
2022/10/28 22:45:43;;;;;;;24.83;12.90;;;;;;;12.93;100.00;101876.66;10543018;28;20048;-77
2022/10/28 22:50:47;;;;;;;32.28;13.63;;;;;;;13.06;100.00;101880.53;10543402;28;20371;-78
2022/10/28 22:55:51;;;;;;;27.20;14.20;;;;;;;13.07;100.00;101889.25;10542968;28;20051;-76
2022/10/28 23:00:53;;;;;;;27.02;12.02;;;;;;;13.19;100.00;101893.19;10542299;28;20066;-76
2022/10/28 23:05:56;;;;;;;25.70;11.60;;;;;;;13.17;100.00;101874.06;10542288;28;20047;-76
2022/10/28 23:10:59;;;;;;;21.80;11.40;;;;;;;13.20;100.00;101847.69;10539655;28;20059;-76